Time;durP1;ratioP1;P1;durP2;ratioP2;P2;SDS_P1;SDS_P2;PMS_P1;PMS_P2;Temp;Humidity;BMP_temperature;BMP_pressure;BME280_temperature;BME280_humidity;BME280_pressure;Samples;Min_cycle;Max_cycle;Signal;HPM_P1;HPM_P2
2023/08/17 00:00:51;;;;;;;7.07;2.73;;;19.90;99.90;;;19.71;72.75;101299.84;5054735;28;20567;-75
2023/08/17 00:03:22;;;;;;;5.83;2.60;;;19.80;99.90;;;19.76;72.41;101295.66;5054365;28;20228;-75
2023/08/17 00:05:54;;;;;;;6.07;2.60;;;19.90;99.90;;;19.72;72.93;101293.38;5054283;28;20707;-75
2023/08/17 00:08:26;;;;;;;3.73;2.50;;;19.90;99.90;;;19.69;72.50;101285.59;5054289;28;20190;-75
2023/08/17 00:10:59;;;;;;;6.43;2.80;;;19.90;99.90;;;19.77;72.64;101272.88;5054544;28;20186;-75
2023/08/17 00:13:33;;;;;;;5.60;2.53;;;19.90;99.90;;;19.68;72.78;101273.09;5054431;28;20316;-75
2023/08/17 00:16:05;;;;;;;8.27;2.73;;;19.90;99.90;;;19.63;72.76;101269.31;5054468;28;20190;-75
2023/08/17 00:18:37;;;;;;;4.70;2.60;;;19.80;99.90;;;19.65;72.95;101267.22;5054307;28;20253;-75
2023/08/17 00:21:09;;;;;;;5.83;2.73;;;19.80;99.90;;;19.64;73.28;101279.97;5054369;28;20195;-75
2023/08/17 00:23:41;;;;;;;5.77;2.93;;;19.80;99.90;;;19.68;72.83;101272.25;5054288;28;20261;-75
2023/08/17 00:26:15;;;;;;;5.60;2.33;;;19.80;99.90;;;19.63;73.29;101278.28;5054254;28;20190;-75
2023/08/17 00:28:46;;;;;;;8.80;2.93;;;19.70;99.90;;;19.66;73.70;101277.88;5054229;28;20274;-75
2023/08/17 00:31:18;;;;;;;5.97;2.97;;;19.80;99.90;;;19.66;73.61;101263.44;5054133;28;20195;-75
2023/08/17 00:33:50;;;;;;;3.90;2.40;;;19.80;99.90;;;19.67;73.41;101273.28;5053776;28;20272;-75
2023/08/17 00:36:22;;;;;;;8.73;2.67;;;19.80;99.90;;;19.62;74.60;101268.47;5054163;28;20273;-75
2023/08/17 00:38:54;;;;;;;4.70;2.50;;;19.70;99.90;;;19.65;74.69;101275.38;5054245;28;20246;-75
2023/08/17 00:41:28;;;;;;;6.93;2.70;;;19.80;99.90;;;19.61;75.32;101272.25;5053655;28;20229;-75
2023/08/17 00:44:00;;;;;;;5.77;2.90;;;19.80;99.90;;;19.63;75.95;101263.88;5053486;28;20309;-75
2023/08/17 00:46:33;;;;;;;5.10;2.90;;;19.80;99.90;;;19.61;77.12;101265.97;5053524;28;20698;-75
2023/08/17 00:49:05;;;;;;;5.60;3.00;;;19.80;99.90;;;19.63;77.23;101270.13;5053831;28;20230;-75
2023/08/17 00:51:37;;;;;;;6.60;2.93;;;19.80;99.90;;;19.66;77.58;101269.72;5053877;28;20197;-75
2023/08/17 00:54:11;;;;;;;5.67;3.10;;;19.80;99.90;;;19.59;78.13;101263.44;5053424;28;20226;-75
2023/08/17 00:56:45;;;;;;;6.93;2.73;;;19.80;99.90;;;19.60;78.18;101270.56;5053834;28;20196;-75
2023/08/17 00:59:17;;;;;;;6.03;2.70;;;19.70;99.90;;;19.65;77.51;101273.50;5053628;28;20304;-75
2023/08/17 01:01:49;;;;;;;4.93;2.80;;;19.80;99.90;;;19.61;77.90;101274.97;5053625;28;20285;-75
2023/08/17 01:04:20;;;;;;;7.60;2.80;;;19.80;99.90;;;19.64;78.99;101277.25;5053261;28;20225;-75
2023/08/17 01:06:52;;;;;;;9.40;2.93;;;19.80;99.90;;;19.66;78.36;101275.16;5053602;28;20187;-75
2023/08/17 01:09:24;;;;;;;6.43;2.90;;;19.90;99.90;;;19.64;78.53;101271.81;5053535;28;20249;-75
2023/08/17 01:12:07;;;;;;;6.63;2.90;;;19.80;99.90;;;19.63;78.51;101270.13;5053673;28;20278;-75
2023/08/17 01:14:51;;;;;;;4.57;2.87;;;19.80;99.90;;;19.63;79.13;101275.56;5053520;28;20321;-75
2023/08/17 01:17:34;;;;;;;10.53;3.57;;;19.80;99.90;;;19.63;79.22;101285.59;5053471;28;20241;-75
2023/08/17 01:20:09;;;;;;;5.57;3.00;;;19.80;99.90;;;19.62;79.66;101273.09;5053549;28;20222;-75
2023/08/17 01:22:45;;;;;;;7.63;3.03;;;19.80;99.90;;;19.57;79.67;101281.00;5053399;28;20286;-75
2023/08/17 01:25:19;;;;;;;4.73;3.00;;;19.70;99.90;;;19.59;80.06;101293.31;5053398;28;20289;-75
2023/08/17 01:27:51;;;;;;;7.97;3.10;;;19.80;99.90;;;19.57;80.65;101291.88;5053412;28;20633;-75
2023/08/17 01:30:23;;;;;;;7.10;3.27;;;19.70;99.90;;;19.53;81.32;101302.31;5053391;28;20222;-74
2023/08/17 01:33:04;;;;;;;6.87;3.53;;;19.70;99.90;;;19.48;82.07;101304.81;5052985;28;20222;-74
2023/08/17 01:35:45;;;;;;;8.43;2.87;;;19.60;99.90;;;19.50;81.59;101301.88;5053332;28;20222;-74
2023/08/17 01:38:22;;;;;;;9.57;3.97;;;19.60;99.90;;;19.46;82.94;101306.88;5053249;28;20260;-74
2023/08/17 01:40:57;;;;;;;7.50;3.57;;;19.60;99.90;;;19.42;83.75;101304.78;5053684;28;20194;-74
2023/08/17 01:43:31;;;;;;;6.70;3.23;;;19.50;99.90;;;19.44;83.39;101314.41;5052912;28;20388;-74
2023/08/17 01:46:04;;;;;;;6.23;3.50;;;19.60;99.90;;;19.41;83.27;101309.38;5055093;28;20218;-74
2023/08/17 01:48:36;;;;;;;10.40;4.03;;;19.60;99.90;;;19.33;83.66;101311.41;5057234;28;20248;-73
2023/08/17 01:51:08;;;;;;;9.37;3.97;;;19.50;99.90;;;19.30;84.18;101317.22;5057214;28;20282;-73
2023/08/17 01:53:40;;;;;;;8.70;3.73;;;19.40;99.90;;;19.22;85.26;101304.66;5057277;28;20257;-73
2023/08/17 01:56:14;;;;;;;9.10;3.93;;;19.30;99.90;;;19.18;84.98;101309.66;5056743;28;20640;-74
2023/08/17 01:58:45;;;;;;;6.90;3.70;;;19.30;99.90;;;19.17;85.31;101309.88;5056999;28;20217;-74
2023/08/17 02:01:17;;;;;;;6.40;3.70;;;19.30;99.90;;;19.14;84.94;101307.59;5056788;28;20675;-74
2023/08/17 02:03:49;;;;;;;7.67;3.83;;;19.30;99.90;;;19.15;84.96;101303.81;5056578;28;20772;-73
2023/08/17 02:06:21;;;;;;;9.17;4.13;;;19.30;99.90;;;19.13;85.14;101292.31;5056940;28;20248;-73
2023/08/17 02:08:53;;;;;;;7.73;4.20;;;19.30;99.90;;;19.14;85.14;101291.28;5056897;28;20182;-73
2023/08/17 02:11:26;;;;;;;7.20;4.40;;;19.30;99.90;;;19.16;86.18;101283.78;5056825;28;20191;-73
2023/08/17 02:13:58;;;;;;;9.87;4.80;;;19.30;99.90;;;19.13;86.22;101292.31;5056734;28;20326;-73
2023/08/17 02:16:30;;;;;;;7.30;4.63;;;19.30;99.90;;;19.04;87.33;101290.84;5056711;28;20278;-73
2023/08/17 02:19:02;;;;;;;8.13;4.67;;;19.10;99.90;;;19.00;87.06;101282.25;5056597;28;20237;-73
2023/08/17 02:21:34;;;;;;;9.30;4.33;;;19.10;99.90;;;18.84;88.92;101284.44;5056342;28;20653;-73
2023/08/17 02:24:07;;;;;;;5.93;3.93;;;19.00;99.90;;;18.84;88.62;101279.03;5056513;28;20317;-73
2023/08/17 02:26:40;;;;;;;7.97;4.47;;;18.90;99.90;;;18.73;89.44;101266.91;5056566;28;20244;-73
2023/08/17 02:29:12;;;;;;;7.23;3.93;;;18.80;99.90;;;18.78;88.59;101269.81;5056437;28;20634;-73
2023/08/17 02:31:44;;;;;;;6.73;4.40;;;18.90;99.90;;;18.71;89.51;101264.38;5056394;28;20273;-73
2023/08/17 02:34:16;;;;;;;8.10;4.37;;;18.90;99.90;;;18.70;88.57;101261.84;5056217;28;20316;-73
2023/08/17 02:36:48;;;;;;;6.03;4.07;;;18.90;99.90;;;18.63;89.55;101253.66;5056274;28;20194;-73
2023/08/17 02:39:20;;;;;;;6.90;3.87;;;18.80;99.90;;;18.50;90.38;101250.88;5056130;28;20210;-73
2023/08/17 02:41:53;;;;;;;6.23;3.93;;;18.70;99.90;;;18.52;90.63;101253.41;5056174;28;20200;-73
2023/08/17 02:44:27;;;;;;;7.80;4.10;;;18.60;99.90;;;18.53;90.87;101250.50;5056023;28;20320;-73
2023/08/17 02:46:59;;;;;;;6.60;4.30;;;18.60;99.90;;;18.41;90.82;101238.50;5055802;28;20260;-73
2023/08/17 02:49:31;;;;;;;6.37;4.30;;;18.60;99.90;;;18.47;90.91;101232.28;5055879;28;20229;-73
2023/08/17 02:52:03;;;;;;;6.37;4.00;;;18.60;99.90;;;18.49;91.13;101232.91;5055972;28;20221;-73
2023/08/17 02:54:35;;;;;;;6.07;4.00;;;18.70;99.90;;;18.45;91.04;101231.66;5055866;28;20226;-73
2023/08/17 02:57:09;;;;;;;7.63;4.40;;;18.60;99.90;;;18.40;91.67;101234.13;5054380;28;20624;-73
2023/08/17 02:59:40;;;;;;;6.20;4.10;;;18.60;99.90;;;18.40;91.65;101231.41;5055723;28;20210;-73
2023/08/17 03:02:12;;;;;;;8.50;4.30;;;18.50;99.90;;;18.41;91.46;101224.09;5055804;28;20273;-73
2023/08/17 03:04:44;;;;;;;6.17;4.30;;;18.60;99.90;;;18.42;92.02;101226.63;5055300;28;20226;-73
2023/08/17 03:07:16;;;;;;;5.80;3.90;;;18.60;99.90;;;18.32;91.65;101220.75;5055334;28;20710;-73
2023/08/17 03:09:48;;;;;;;7.83;4.63;;;18.50;99.90;;;18.24;92.79;101223.59;5055635;28;20270;-73
2023/08/17 03:12:21;;;;;;;6.63;4.23;;;18.40;99.90;;;18.24;92.06;101218.16;5055548;28;20269;-73
2023/08/17 03:14:53;;;;;;;6.93;3.90;;;18.40;99.90;;;18.17;93.02;101220.00;5055546;28;20277;-73
2023/08/17 03:17:26;;;;;;;8.30;4.87;;;18.40;99.90;;;18.19;93.00;101226.03;5055409;28;20213;-73
2023/08/17 03:20:00;;;;;;;5.63;4.30;;;18.40;99.90;;;18.12;92.96;101204.31;5055034;28;20622;-73
2023/08/17 03:22:32;;;;;;;5.40;3.87;;;18.40;99.90;;;18.11;93.17;101202.66;5055328;28;20327;-73
2023/08/17 03:25:04;;;;;;;6.07;4.10;;;18.40;99.90;;;18.06;94.58;101198.84;5055552;28;20198;-73
2023/08/17 03:27:38;;;;;;;4.60;3.33;;;18.30;99.90;;;18.06;93.13;101199.69;5055298;28;20199;-73
2023/08/17 03:30:10;;;;;;;4.43;3.50;;;18.30;99.90;;;18.10;94.15;101205.56;5055143;28;20655;-72
2023/08/17 03:32:43;;;;;;;4.47;4.03;;;18.40;99.90;;;18.05;94.54;101203.44;5055073;28;20261;-72
2023/08/17 03:35:14;;;;;;;4.70;3.90;;;18.30;99.90;;;18.06;94.53;101204.28;5054871;28;20720;-72
2023/08/17 03:37:46;;;;;;;4.47;3.70;;;18.30;99.90;;;17.99;95.46;101206.09;5055141;28;20193;-72
2023/08/17 03:40:18;;;;;;;4.77;4.00;;;18.30;99.90;;;17.99;94.63;101209.66;5055871;28;20213;-74
2023/08/17 03:42:52;;;;;;;5.43;4.17;;;18.20;99.90;;;18.04;95.33;101211.78;5054886;28;20226;-73
2023/08/17 03:45:23;;;;;;;6.33;4.57;;;18.30;99.90;;;18.06;95.48;101209.69;5054984;28;20273;-73
2023/08/17 03:47:55;;;;;;;5.03;4.00;;;18.30;99.90;;;18.06;95.31;101209.69;5054526;28;20579;-73
2023/08/17 03:50:29;;;;;;;5.77;4.10;;;18.30;99.90;;;18.07;95.47;101205.97;5054859;28;20202;-73
2023/08/17 03:53:01;;;;;;;4.97;3.97;;;18.40;99.90;;;18.03;96.03;101212.81;5054758;28;20230;-73
2023/08/17 03:55:34;;;;;;;4.50;3.60;;;18.30;99.90;;;17.99;96.06;101208.81;5054771;28;20289;-73
2023/08/17 03:58:07;;;;;;;4.07;3.67;;;18.40;99.90;;;17.99;96.28;101214.22;5054566;28;20244;-73
2023/08/17 04:00:40;;;;;;;4.27;3.40;;;18.30;99.90;;;18.01;96.66;101217.59;5054609;28;20649;-73
2023/08/17 04:03:12;;;;;;;4.40;3.70;;;18.30;99.90;;;18.04;96.57;101209.06;5054908;28;20317;-73
2023/08/17 04:05:44;;;;;;;4.17;3.77;;;18.30;99.90;;;17.99;96.83;101211.53;5054579;28;20271;-73
2023/08/17 04:08:16;;;;;;;4.27;3.87;;;18.30;99.90;;;17.88;96.88;101217.47;5054255;28;20361;-74
2023/08/17 04:10:47;;;;;;;3.87;3.43;;;18.20;99.90;;;17.96;97.60;101214.63;5054488;28;20269;-73
2023/08/17 04:13:21;;;;;;;5.23;4.50;;;18.20;99.90;;;17.84;97.70;101213.50;5054670;28;20240;-74
2023/08/17 04:15:53;;;;;;;4.73;4.33;;;18.20;99.90;;;17.90;98.25;101221.69;5054136;28;20197;-74
2023/08/17 04:18:25;;;;;;;4.53;4.00;;;18.10;99.90;;;17.91;98.08;101219.81;5054020;28;20532;-74
2023/08/17 04:20:56;;;;;;;5.63;4.20;;;18.20;99.90;;;17.99;98.16;101214.22;5053940;28;20750;-74
2023/08/17 04:23:28;;;;;;;4.70;4.30;;;18.30;99.90;;;17.91;97.80;101222.53;5053836;28;20711;-74
2023/08/17 04:26:00;;;;;;;5.47;4.03;;;18.30;99.90;;;17.98;98.42;101223.41;5054203;28;20194;-74
2023/08/17 04:28:33;;;;;;;5.83;4.20;;;18.30;99.90;;;17.99;97.50;101225.06;5054331;28;20194;-74
2023/08/17 04:31:05;;;;;;;5.13;4.63;;;18.40;99.90;;;17.95;97.98;101224.63;5054129;28;20277;-74
2023/08/17 04:33:37;;;;;;;4.97;4.47;;;18.30;99.90;;;17.89;98.70;101214.56;5054012;28;20265;-74
2023/08/17 04:36:09;;;;;;;5.13;4.60;;;18.20;99.90;;;17.94;99.17;101214.00;5054013;28;20194;-74
2023/08/17 04:38:41;;;;;;;7.43;5.07;;;18.20;99.90;;;17.91;98.56;101212.50;5053982;28;20223;-74
2023/08/17 04:41:13;;;;;;;5.40;4.90;;;18.20;99.90;;;17.91;98.43;101212.50;5053869;28;20248;-74
2023/08/17 04:43:49;;;;;;;4.70;4.20;;;18.30;99.90;;;17.97;98.82;101217.16;5054406;28;20225;-74
2023/08/17 04:46:20;;;;;;;5.47;4.60;;;18.30;99.90;;;17.99;98.10;101215.06;5053398;28;20647;-74
2023/08/17 04:48:52;;;;;;;7.70;5.20;;;18.40;99.90;;;17.97;98.23;101210.91;5053841;28;20201;-74
2023/08/17 04:51:24;;;;;;;5.70;5.03;;;18.30;99.90;;;17.97;98.67;101216.31;5053755;28;20214;-74
2023/08/17 04:53:56;;;;;;;5.27;4.73;;;18.30;99.90;;;17.95;98.49;101221.06;5053832;28;20281;-74
2023/08/17 04:56:28;;;;;;;5.47;4.93;;;18.30;99.90;;;17.90;98.49;101204.59;5053724;28;20279;-74
2023/08/17 04:59:01;;;;;;;5.70;5.10;;;18.20;99.90;;;17.95;98.81;101207.53;5053356;28;20240;-67
2023/08/17 05:01:33;;;;;;;8.37;5.37;;;18.20;99.90;;;17.92;98.35;101211.47;5053341;28;20675;-74
2023/08/17 05:04:05;;;;;;;6.40;5.53;;;18.30;99.90;;;17.95;98.73;101212.94;5053202;28;20773;-74
2023/08/17 05:06:38;;;;;;;8.17;5.23;;;18.30;99.90;;;17.88;98.55;101212.91;5053324;28;20182;-74
2023/08/17 05:09:10;;;;;;;5.50;5.00;;;18.20;99.90;;;17.90;98.94;101210.00;5053504;28;20194;-74
2023/08/17 05:11:42;;;;;;;6.37;5.50;;;18.30;99.90;;;17.90;99.84;101215.41;5053490;28;20190;-74
2023/08/17 05:14:15;;;;;;;6.77;5.10;;;18.20;99.90;;;17.95;99.30;101212.94;5053404;28;20279;-74
2023/08/17 05:16:47;;;;;;;6.07;5.47;;;18.30;99.90;;;17.98;98.87;101223.41;5053132;28;20577;-74
2023/08/17 05:19:19;;;;;;;6.90;5.80;;;18.30;99.90;;;17.88;99.64;101209.34;5053340;28;20218;-74
2023/08/17 05:21:51;;;;;;;5.47;4.97;;;18.30;99.90;;;17.88;99.70;101221.03;5052831;28;20218;-75
2023/08/17 05:24:23;;;;;;;5.63;5.13;;;18.30;99.90;;;17.88;99.82;101214.75;5053297;28;20232;-74
2023/08/17 05:26:57;;;;;;;7.70;5.20;;;18.20;99.90;;;17.91;99.50;101217.91;5053347;28;20281;-74
2023/08/17 05:29:32;;;;;;;6.23;5.63;;;18.20;99.90;;;17.90;99.89;101218.13;5053320;28;20225;-74
2023/08/17 05:32:04;;;;;;;5.77;5.27;;;18.30;99.90;;;17.93;100.00;101220.44;5052978;28;20651;-74
2023/08/17 05:34:36;;;;;;;7.77;5.50;;;18.30;99.90;;;17.90;100.00;101221.69;5053248;28;20236;-75
2023/08/17 05:37:08;;;;;;;6.20;5.30;;;18.30;99.90;;;17.92;100.00;101222.31;5053245;28;20240;-74
2023/08/17 05:39:40;;;;;;;6.40;5.00;;;18.30;99.90;;;17.96;100.00;101217.34;5053231;28;20194;-74
2023/08/17 05:42:12;;;;;;;6.90;5.27;;;18.30;99.90;;;17.96;100.00;101226.31;5053673;28;20214;-74
2023/08/17 05:44:45;;;;;;;5.83;5.17;;;18.30;99.90;;;17.93;99.83;101221.28;5053029;28;20226;-74
2023/08/17 05:47:19;;;;;;;6.13;4.90;;;18.30;99.90;;;17.93;100.00;101215.88;5052884;28;20209;-74
2023/08/17 05:49:50;;;;;;;6.13;5.40;;;18.20;99.90;;;17.94;100.00;101228.38;5053188;28;20193;-75
2023/08/17 05:52:22;;;;;;;5.77;4.90;;;18.30;99.90;;;17.94;100.00;101235.66;5053077;28;20214;-74
2023/08/17 05:54:54;;;;;;;7.00;4.83;;;18.30;99.90;;;17.96;99.95;101236.31;5052835;28;20191;-74
2023/08/17 05:57:26;;;;;;;6.47;5.17;;;18.30;99.90;;;17.95;99.79;101229.19;5052798;28;20602;-75
2023/08/17 06:00:00;;;;;;;6.70;5.67;;;18.30;99.90;;;17.95;100.00;101234.63;5053143;28;20274;-74
2023/08/17 06:02:32;;;;;;;6.23;5.63;;;18.30;99.90;;;17.94;100.00;101232.97;5052914;28;20309;-74
2023/08/17 06:05:04;;;;;;;5.93;5.40;;;18.30;99.90;;;17.94;100.00;101238.38;5053088;28;20256;-71
2023/08/17 06:07:36;;;;;;;6.13;5.53;;;18.30;99.90;;;17.90;100.00;101234.38;5052974;28;20252;-73
2023/08/17 06:10:09;;;;;;;5.67;5.17;;;18.30;99.90;;;17.93;100.00;101242.13;5053786;28;20190;-73
2023/08/17 06:12:41;;;;;;;6.10;5.50;;;18.30;99.90;;;17.95;99.99;101240.88;5052869;28;20234;-73
2023/08/17 06:15:16;;;;;;;7.27;5.40;;;18.30;99.90;;;17.96;100.00;101237.16;5052876;28;20288;-73
2023/08/17 06:17:49;;;;;;;5.60;5.03;;;18.40;99.90;;;17.98;100.00;101235.06;5052911;28;20255;-73
2023/08/17 06:20:22;;;;;;;5.70;5.20;;;18.30;99.90;;;17.96;100.00;101242.56;5052491;28;20194;-73
2023/08/17 06:22:54;;;;;;;6.33;5.07;;;18.40;99.90;;;17.93;100.00;101248.38;5052732;28;20222;-74
2023/08/17 06:25:26;;;;;;;6.37;5.23;;;18.30;99.90;;;17.88;100.00;101239.13;5052837;28;20278;-74
2023/08/17 06:27:58;;;;;;;5.20;4.77;;;18.20;99.90;;;17.89;100.00;101241.66;5052949;28;20222;-74
2023/08/17 06:30:31;;;;;;;5.60;5.10;;;18.30;99.90;;;17.90;100.00;101242.50;5052783;28;20190;-74
2023/08/17 06:33:04;;;;;;;5.77;5.07;;;18.30;99.90;;;17.92;100.00;101243.97;5055891;28;20283;-74
2023/08/17 06:35:36;;;;;;;4.93;4.50;;;18.30;99.90;;;17.92;100.00;101248.56;5056299;28;20190;-74
2023/08/17 06:38:08;;;;;;;5.10;4.60;;;18.30;99.90;;;17.87;100.00;101245.63;5056335;28;20289;-74
2023/08/17 06:40:41;;;;;;;5.47;4.97;;;18.30;99.90;;;17.90;99.99;101245.22;5056190;28;20252;-74
2023/08/17 06:43:12;;;;;;;6.43;5.20;;;18.30;99.90;;;17.89;100.00;101243.53;5056142;28;20284;-74
2023/08/17 06:45:48;;;;;;;6.33;5.23;;;18.30;99.90;;;17.85;100.00;101245.78;5056143;28;20208;-74
2023/08/17 06:48:20;;;;;;;5.43;4.87;;;18.30;99.90;;;17.89;100.00;101244.38;5055945;28;20308;-74
2023/08/17 06:50:52;;;;;;;4.77;4.40;;;18.30;99.90;;;17.91;100.00;101247.72;5055924;28;20277;-73
2023/08/17 06:53:24;;;;;;;5.57;4.97;;;18.30;99.90;;;17.92;100.00;101249.41;5055909;28;20313;-73
2023/08/17 06:55:54;;;;;;;5.90;5.10;;;18.30;99.90;;;17.92;100.00;101245.84;5056272;28;20261;-73
2023/08/17 06:58:26;;;;;;;4.77;4.23;;;18.30;99.90;;;17.93;100.00;101247.53;5055832;28;20244;-73
2023/08/17 07:00:59;;;;;;;5.70;5.13;;;18.30;99.90;;;17.92;100.00;101248.56;5055933;28;20289;-74
2023/08/17 07:03:31;;;;;;;5.47;5.07;;;18.30;99.90;;;17.97;100.00;101248.81;5055429;28;20655;-74
2023/08/17 07:06:02;;;;;;;5.70;5.13;;;18.40;99.90;;;17.97;100.00;101249.66;5055740;28;20202;-74
2023/08/17 07:08:34;;;;;;;5.70;4.87;;;18.40;99.90;;;17.99;99.76;101244.88;5055704;28;20251;-74
2023/08/17 07:11:08;;;;;;;6.67;5.30;;;18.40;99.90;;;18.01;99.76;101244.69;5055646;28;20214;-74
2023/08/17 07:13:40;;;;;;;5.97;5.10;;;18.40;99.90;;;17.99;100.00;101254.88;5055522;28;20230;-74
2023/08/17 07:16:14;;;;;;;7.63;5.00;;;18.30;99.90;;;18.03;100.00;101256.16;5055233;28;20633;-74
2023/08/17 07:18:46;;;;;;;5.40;4.90;;;18.40;99.90;;;18.00;100.00;101249.28;5055158;28;20667;-74
2023/08/17 07:21:18;;;;;;;6.37;5.77;;;18.40;99.90;;;18.00;100.00;101253.84;5055373;28;20218;-74
2023/08/17 07:23:51;;;;;;;7.70;5.47;;;18.40;99.90;;;18.02;100.00;101262.59;5055032;28;20700;-74
2023/08/17 07:26:23;;;;;;;6.07;5.47;;;18.40;99.90;;;18.03;100.00;101253.44;5055352;28;20284;-75
2023/08/17 07:28:55;;;;;;;5.90;5.30;;;18.40;99.90;;;18.02;100.00;101263.44;5055311;28;20281;-74
2023/08/17 07:31:28;;;;;;;6.00;5.50;;;18.40;99.90;;;18.07;100.00;101265.56;5055258;28;20248;-75
2023/08/17 07:34:00;;;;;;;5.23;4.77;;;18.50;99.90;;;18.06;100.00;101258.47;5055156;28;20309;-75
2023/08/17 07:36:32;;;;;;;5.93;5.00;;;18.50;99.90;;;18.07;100.00;101260.16;5055154;28;20195;-75
2023/08/17 07:39:05;;;;;;;5.73;4.77;;;18.50;99.90;;;18.06;99.95;101253.06;5055135;28;20277;-75
2023/08/17 07:41:38;;;;;;;5.33;4.90;;;18.50;99.90;;;18.08;99.66;101259.94;5055022;28;20631;-75
2023/08/17 07:44:11;;;;;;;5.53;5.03;;;18.50;99.90;;;18.13;99.76;101270.19;5054365;28;20307;-74
2023/08/17 07:46:44;;;;;;;5.83;5.00;;;18.50;99.90;;;18.08;99.66;101259.94;5054799;28;20301;-74
2023/08/17 07:49:16;;;;;;;5.67;4.33;;;18.50;99.90;;;18.08;99.49;101261.84;5054576;28;20301;-74
2023/08/17 07:52:01;;;;;;;6.07;4.83;;;18.50;99.90;;;18.12;99.59;101260.38;5054935;28;20635;-74
2023/08/17 07:54:33;;;;;;;5.40;4.37;;;18.50;99.90;;;18.10;99.67;101271.44;5054756;28;20299;-74
2023/08/17 07:57:05;;;;;;;4.50;4.10;;;18.50;99.90;;;18.06;99.69;101258.47;5054643;28;20710;-74
2023/08/17 07:59:38;;;;;;;6.40;4.63;;;18.50;99.90;;;18.09;99.91;101264.34;5054743;28;20213;-74
2023/08/17 08:02:11;;;;;;;5.10;4.20;;;18.50;99.90;;;18.06;99.87;101264.72;5054267;28;20746;-74
2023/08/17 08:04:44;;;;;;;4.43;4.03;;;18.40;99.90;;;18.03;99.84;101270.56;5054473;28;20317;-74
2023/08/17 08:07:15;;;;;;;5.20;4.67;;;18.40;99.90;;;18.03;99.95;101281.38;5054572;28;20273;-73
2023/08/17 08:09:47;;;;;;;6.10;5.30;;;18.40;99.90;;;18.03;99.67;101285.97;5054495;28;20201;-74
2023/08/17 08:12:19;;;;;;;4.77;4.37;;;18.40;99.90;;;18.04;99.39;101290.34;5054451;28;20280;-74
2023/08/17 08:14:51;;;;;;;6.57;4.90;;;18.40;99.90;;;18.08;99.25;101283.53;5054601;28;20197;-73
2023/08/17 08:17:24;;;;;;;4.87;4.40;;;18.40;99.90;;;18.09;99.32;101288.72;5054087;28;20226;-73
2023/08/17 08:19:58;;;;;;;4.53;4.13;;;18.50;99.90;;;18.13;98.80;101286.47;5053980;28;20195;-73
2023/08/17 08:22:29;;;;;;;4.30;3.90;;;18.50;99.90;;;18.08;99.07;101286.22;5053865;28;20685;-73
2023/08/17 08:25:03;;;;;;;4.57;4.13;;;18.50;99.90;;;18.09;98.65;101290.59;5054235;28;20281;-73
2023/08/17 08:27:35;;;;;;;5.50;4.47;;;18.50;99.90;;;18.08;98.47;101294.34;5054219;28;20285;-73
2023/08/17 08:30:06;;;;;;;6.90;5.13;;;18.50;99.90;;;18.10;98.99;101297.69;5053857;28;20289;-72
2023/08/17 08:32:39;;;;;;;5.23;3.93;;;18.50;99.90;;;18.05;98.94;101289.31;5054021;28;20233;-73
2023/08/17 08:35:11;;;;;;;4.90;4.40;;;18.40;99.90;;;18.01;99.05;101288.88;5054329;28;20195;-73
2023/08/17 08:37:43;;;;;;;4.37;3.87;;;18.40;99.90;;;17.99;99.13;101290.09;5054048;28;20284;-73
2023/08/17 08:40:17;;;;;;;5.57;4.97;;;18.40;99.90;;;18.01;99.78;101283.47;5054029;28;20191;-73
2023/08/17 08:42:50;;;;;;;4.80;4.27;;;18.40;99.90;;;18.04;99.49;101293.06;5053790;28;20653;-73
2023/08/17 08:45:22;;;;;;;4.90;4.40;;;18.40;99.90;;;18.05;99.01;101289.31;5054104;28;20190;-72
2023/08/17 08:47:57;;;;;;;5.80;4.20;;;18.40;99.90;;;18.09;99.60;101285.16;5053587;28;20297;-73
2023/08/17 08:50:36;;;;;;;5.50;4.67;;;18.50;99.90;;;18.09;100.00;101285.16;5053828;28;20197;-73
2023/08/17 08:53:11;;;;;;;5.67;4.40;;;18.50;99.90;;;18.06;100.00;101288.28;5054040;28;20291;-73
2023/08/17 08:55:54;;;;;;;4.97;4.30;;;18.40;99.90;;;18.07;100.00;101287.25;5052843;28;20207;-73
2023/08/17 08:58:28;;;;;;;4.40;4.00;;;18.50;99.90;;;18.08;100.00;101291.66;5053378;28;20641;-73
2023/08/17 09:01:03;;;;;;;4.87;4.47;;;18.40;99.90;;;18.05;100.00;101283.88;5053361;28;20190;-73
2023/08/17 09:03:41;;;;;;;4.30;4.00;;;18.40;99.90;;;17.98;100.00;101285.72;5053476;28;20230;-73
2023/08/17 09:06:16;;;;;;;4.47;4.17;;;18.30;99.90;;;18.02;100.00;101287.84;5053671;28;20254;-73
2023/08/17 09:08:49;;;;;;;5.07;4.67;;;18.40;99.90;;;17.99;100.00;101284.66;5053560;28;20229;-73
2023/08/17 09:11:21;;;;;;;4.40;4.10;;;18.30;99.90;;;18.01;99.62;101282.63;5053220;28;20190;-73
2023/08/17 09:13:55;;;;;;;5.33;4.93;;;18.40;99.90;;;17.98;99.81;101285.72;5053935;28;20280;-73
2023/08/17 09:16:28;;;;;;;5.10;4.57;;;18.30;99.90;;;18.00;99.60;101294.50;5053494;28;20214;-73
2023/08/17 09:19:02;;;;;;;4.97;4.53;;;18.30;99.90;;;17.96;98.91;101295.91;5053104;28;20660;-74
2023/08/17 09:21:36;;;;;;;4.97;4.57;;;18.30;99.90;;;17.92;99.70;101289.19;5053402;28;20251;-75
2023/08/17 09:24:13;;;;;;;4.53;4.17;;;18.30;99.90;;;17.92;99.55;101290.03;5053183;28;20257;-75
2023/08/17 09:26:44;;;;;;;4.33;3.93;;;18.30;99.90;;;17.95;99.48;101291.50;5053009;28;20603;-75
2023/08/17 09:29:23;;;;;;;3.70;3.40;;;18.30;99.90;;;17.93;98.70;101282.75;5053026;28;20648;-75
2023/08/17 09:31:55;;;;;;;4.60;3.33;;;18.30;99.90;;;17.99;99.53;101279.25;5053299;28;20227;-75
2023/08/17 09:34:31;;;;;;;5.03;4.53;;;18.30;99.90;;;18.00;99.15;101291.78;5053906;28;20743;-74
2023/08/17 09:37:07;;;;;;;7.83;7.20;;;18.40;99.90;;;17.98;99.42;101283.81;5053263;28;20193;-74
2023/08/17 09:39:39;;;;;;;4.23;3.90;;;18.30;99.90;;;17.98;99.26;101277.59;5053210;28;20194;-74
2023/08/17 09:42:12;;;;;;;4.17;3.77;;;18.40;99.90;;;18.01;99.74;101282.63;5052884;28;20195;-74
2023/08/17 09:44:44;;;;;;;5.10;4.00;;;18.40;99.90;;;17.99;99.89;101284.66;5053134;28;20281;-74
2023/08/17 09:47:17;;;;;;;3.73;3.43;;;18.40;99.90;;;18.01;100.00;101280.75;5052858;28;20300;-74
2023/08/17 09:49:55;;;;;;;3.80;3.50;;;18.40;99.90;;;17.97;98.80;101278.63;5053169;28;20201;-74
2023/08/17 09:52:27;;;;;;;3.73;3.43;;;18.30;99.90;;;17.96;99.34;101279.66;5053046;28;20222;-74
2023/08/17 09:55:03;;;;;;;4.07;3.73;;;18.30;99.90;;;17.95;98.59;101277.97;5053097;28;20244;-74
2023/08/17 09:57:42;;;;;;;3.53;3.10;;;18.30;99.90;;;17.89;98.42;101276.88;5052754;28;20556;-74
2023/08/17 10:00:16;;;;;;;3.30;3.00;;;18.20;99.90;;;17.90;98.47;101280.44;5052767;28;20643;-74
2023/08/17 10:02:52;;;;;;;3.53;3.23;;;18.30;99.90;;;17.77;97.91;101281.16;5052902;28;20240;-74
2023/08/17 10:05:27;;;;;;;4.07;3.30;;;18.10;99.90;;;17.76;97.60;101284.06;5052707;28;20719;-74
2023/08/17 10:08:03;;;;;;;4.30;3.90;;;18.10;99.90;;;17.71;97.98;101282.75;5055966;28;20739;-74
2023/08/17 10:10:39;;;;;;;4.30;3.90;;;18.10;99.90;;;17.72;97.72;101278.19;5056806;28;20225;-74
2023/08/17 10:13:19;;;;;;;5.00;4.37;;;18.10;99.90;;;17.67;98.19;101281.47;5056696;28;20298;-74
2023/08/17 10:16:03;;;;;;;3.80;3.40;;;18.00;99.90;;;17.67;97.81;101278.75;5056702;28;20286;-74
2023/08/17 10:18:45;;;;;;;6.83;4.50;;;18.00;99.90;;;17.68;97.69;101283.16;5056630;28;20191;-74
2023/08/17 10:21:28;;;;;;;5.80;4.37;;;18.00;99.90;;;17.65;98.04;101283.53;5056596;28;20269;-74
2023/08/17 10:24:00;;;;;;;6.33;3.80;;;18.00;99.90;;;17.59;96.65;101278.91;5056410;28;20222;-74
2023/08/17 10:26:32;;;;;;;4.57;4.17;;;17.90;99.90;;;17.51;96.02;101280.84;5057300;28;20328;-73
2023/08/17 10:29:05;;;;;;;4.93;4.47;;;18.00;99.90;;;17.52;97.70;101286.09;5056130;28;20191;-73
2023/08/17 10:31:46;;;;;;;6.60;5.17;;;17.90;99.90;;;17.55;97.52;101288.41;5056393;28;20247;-73
2023/08/17 10:34:19;;;;;;;5.23;4.67;;;17.90;99.90;;;17.63;97.13;101291.03;5056265;28;20225;-73